createdAt,value
2023-06-12T00:00:39.775Z,995.82
2023-06-12T00:01:39.741Z,995.83
2023-06-12T00:02:39.778Z,995.83
2023-06-12T00:03:39.942Z,995.81
2023-06-12T00:04:39.720Z,995.83
2023-06-12T00:05:39.706Z,995.82
2023-06-12T00:06:39.682Z,995.82
2023-06-12T00:07:39.674Z,995.87
2023-06-12T00:08:39.663Z,995.84
2023-06-12T00:09:39.644Z,995.83
2023-06-12T00:10:39.666Z,995.85
2023-06-12T00:11:39.643Z,995.90
2023-06-12T00:12:39.624Z,995.81
2023-06-12T00:13:39.617Z,995.90
2023-06-12T00:14:39.643Z,995.88
2023-06-12T00:15:39.631Z,995.87
2023-06-12T00:16:39.664Z,995.88
2023-06-12T00:17:39.671Z,995.89
2023-06-12T00:18:39.629Z,995.88
2023-06-12T00:19:39.606Z,995.87
2023-06-12T00:20:39.562Z,995.93
2023-06-12T00:21:39.559Z,995.86
2023-06-12T00:22:39.547Z,995.84
2023-06-12T00:23:39.587Z,995.83
2023-06-12T00:24:39.558Z,995.86
2023-06-12T00:25:39.533Z,995.89
2023-06-12T00:26:39.542Z,995.92
2023-06-12T00:27:39.513Z,995.87
2023-06-12T00:28:40.519Z,995.87
2023-06-12T00:29:39.523Z,995.85
2023-06-12T00:30:39.484Z,995.91
2023-06-12T00:31:39.531Z,995.87
2023-06-12T00:32:39.555Z,995.84
2023-06-12T00:33:39.487Z,995.83
2023-06-12T00:34:39.481Z,995.84
2023-06-12T00:35:39.599Z,995.83
2023-06-12T00:36:40.218Z,995.86
2023-06-12T00:37:39.611Z,995.88
2023-06-12T00:38:39.483Z,995.98
2023-06-12T00:39:39.426Z,995.84
2023-06-12T00:40:39.422Z,995.93
2023-06-12T00:41:39.417Z,995.87
2023-06-12T00:42:39.413Z,995.85
2023-06-12T00:43:39.503Z,995.92
2023-06-12T00:44:39.400Z,995.85
2023-06-12T00:45:39.418Z,995.85
2023-06-12T00:46:39.427Z,995.83
2023-06-12T00:47:39.400Z,995.84
2023-06-12T00:48:39.397Z,995.79
2023-06-12T00:49:39.360Z,995.87
2023-06-12T00:50:39.344Z,995.77
2023-06-12T00:51:39.329Z,995.83
2023-06-12T00:52:39.361Z,995.84
2023-06-12T00:53:39.347Z,995.83
2023-06-12T00:54:39.312Z,995.85
2023-06-12T00:55:39.301Z,995.87
2023-06-12T00:56:39.315Z,995.90
2023-06-12T00:57:39.365Z,995.76
2023-06-12T00:58:39.288Z,995.83
2023-06-12T00:59:39.272Z,995.88
2023-06-12T01:00:39.278Z,995.79
2023-06-12T01:01:39.276Z,995.93
2023-06-12T01:02:39.337Z,995.90
2023-06-12T01:03:39.262Z,995.87
2023-06-12T01:04:39.230Z,995.91
2023-06-12T01:06:11.138Z,995.87
2023-06-12T01:06:39.242Z,995.93
2023-06-12T01:07:39.228Z,995.94
2023-06-12T01:08:39.202Z,995.86
2023-06-12T01:09:39.192Z,995.92
2023-06-12T01:10:39.197Z,995.92
2023-06-12T01:11:39.203Z,996.02
2023-06-12T01:12:39.171Z,996.02
2023-06-12T01:13:39.173Z,996.01
2023-06-12T01:14:39.156Z,995.99
2023-06-12T01:15:39.141Z,995.98
2023-06-12T01:16:39.173Z,995.93
2023-06-12T01:17:39.159Z,995.91
2023-06-12T01:18:39.112Z,996.00
2023-06-12T01:19:40.114Z,995.96
2023-06-12T01:20:39.106Z,995.97
2023-06-12T01:21:39.132Z,995.96
2023-06-12T01:22:39.111Z,995.93
2023-06-12T01:23:39.166Z,995.95
2023-06-12T01:24:39.093Z,995.91
2023-06-12T01:25:39.097Z,995.94
2023-06-12T01:26:39.122Z,995.98
2023-06-12T01:27:39.057Z,996.00
2023-06-12T01:28:39.064Z,995.98
2023-06-12T01:29:39.053Z,995.97
2023-06-12T01:30:39.059Z,996.01
2023-06-12T01:31:39.035Z,995.98
2023-06-12T01:32:39.093Z,995.98
2023-06-12T01:33:39.016Z,996.00
2023-06-12T01:34:39.011Z,995.99
2023-06-12T01:35:39.036Z,995.94
2023-06-12T01:36:38.988Z,995.95
2023-06-12T01:37:39.000Z,995.97
2023-06-12T01:38:38.967Z,995.93
2023-06-12T01:39:38.986Z,996.00
2023-06-12T01:40:38.978Z,995.94
2023-06-12T01:41:38.943Z,995.99
2023-06-12T01:42:38.937Z,995.95
2023-06-12T01:43:38.961Z,995.93
2023-06-12T01:44:38.952Z,996.00
2023-06-12T01:45:38.915Z,995.89
2023-06-12T01:46:38.960Z,995.92
2023-06-12T01:47:38.972Z,995.94
2023-06-12T01:48:38.890Z,995.98
2023-06-12T01:49:38.905Z,995.95
2023-06-12T01:50:38.888Z,995.98
2023-06-12T01:51:38.866Z,995.97
2023-06-12T01:52:38.858Z,996.01
2023-06-12T01:53:38.881Z,995.94
2023-06-12T01:54:38.867Z,996.02
2023-06-12T01:55:38.851Z,995.95
2023-06-12T01:56:38.863Z,995.95
2023-06-12T01:57:38.834Z,995.96
2023-06-12T01:58:38.876Z,996.01
2023-06-12T01:59:38.848Z,996.00
2023-06-12T02:00:38.802Z,995.99
2023-06-12T02:01:38.842Z,996.00
2023-06-12T02:02:38.810Z,996.01
2023-06-12T02:03:38.813Z,996.02
2023-06-12T02:04:38.772Z,996.03
2023-06-12T02:05:39.766Z,996.02
2023-06-12T02:06:38.760Z,996.03
2023-06-12T02:07:38.744Z,995.98
2023-06-12T02:08:38.766Z,995.98
2023-06-12T02:09:38.739Z,996.08
2023-06-12T02:10:38.729Z,996.02
2023-06-12T02:11:38.732Z,996.04
2023-06-12T02:12:38.733Z,996.00
2023-06-12T02:13:38.883Z,996.04
2023-06-12T02:14:38.693Z,996.10
2023-06-12T02:15:38.700Z,996.06
2023-06-12T02:16:38.697Z,996.01
2023-06-12T02:17:38.741Z,996.12
2023-06-12T02:18:38.695Z,996.08
2023-06-12T02:19:38.669Z,996.04
2023-06-12T02:20:38.667Z,996.14
2023-06-12T02:21:38.654Z,996.03
2023-06-12T02:22:38.690Z,996.01
2023-06-12T02:23:38.661Z,996.09
2023-06-12T02:24:38.622Z,996.00
2023-06-12T02:25:38.642Z,996.09
2023-06-12T02:26:38.618Z,996.05
2023-06-12T02:27:38.627Z,996.07
2023-06-12T02:28:38.592Z,996.04
2023-06-12T02:29:38.585Z,996.02
2023-06-12T02:30:38.586Z,995.99
2023-06-12T02:31:38.607Z,996.02
2023-06-12T02:32:38.603Z,996.07
2023-06-12T02:33:38.591Z,996.00
2023-06-12T02:34:39.544Z,996.06
2023-06-12T02:35:38.531Z,996.08
2023-06-12T02:36:38.562Z,996.06
2023-06-12T02:37:38.528Z,996.03
2023-06-12T02:38:38.512Z,996.08
2023-06-12T02:39:38.503Z,996.07
2023-06-12T02:40:38.496Z,996.14
2023-06-12T02:41:38.527Z,996.07
2023-06-12T02:42:38.479Z,996.12
2023-06-12T02:43:38.481Z,996.14
2023-06-12T02:44:38.489Z,996.12
2023-06-12T02:45:38.510Z,996.09
2023-06-12T02:46:38.480Z,996.04
2023-06-12T02:47:38.507Z,996.08
2023-06-12T02:48:38.439Z,996.06
2023-06-12T02:49:38.430Z,996.05
2023-06-12T02:50:38.457Z,996.03
2023-06-12T02:51:38.410Z,996.02
2023-06-12T02:52:38.415Z,996.07
2023-06-12T02:53:38.465Z,996.16
2023-06-12T02:54:38.410Z,996.08
2023-06-12T02:55:38.422Z,996.15
2023-06-12T02:56:38.383Z,996.12
2023-06-12T02:57:38.423Z,996.12
2023-06-12T02:58:38.365Z,996.16
2023-06-12T02:59:38.375Z,996.21
2023-06-12T03:00:38.391Z,996.17
2023-06-12T03:01:38.415Z,996.12
2023-06-12T03:02:38.470Z,996.15
2023-06-12T03:03:38.349Z,996.11
2023-06-12T03:04:38.345Z,996.12
2023-06-12T03:05:38.337Z,996.17
2023-06-12T03:06:38.303Z,996.22
2023-06-12T03:07:38.496Z,996.20
2023-06-12T03:08:38.287Z,996.22
2023-06-12T03:09:38.309Z,996.17
2023-06-12T03:10:38.279Z,996.27
2023-06-12T03:11:38.323Z,996.27
2023-06-12T03:12:38.340Z,996.25
2023-06-12T03:13:38.252Z,996.27
2023-06-12T03:14:38.259Z,996.25
2023-06-12T03:15:38.271Z,996.23
2023-06-12T03:16:38.281Z,996.21
2023-06-12T03:17:38.248Z,996.27
2023-06-12T03:18:38.246Z,996.21
2023-06-12T03:19:38.240Z,996.13
2023-06-12T03:20:38.202Z,996.17
2023-06-12T03:21:38.190Z,996.25
2023-06-12T03:22:38.187Z,996.20
2023-06-12T03:23:38.213Z,996.25
2023-06-12T03:24:38.190Z,996.25
2023-06-12T03:25:38.164Z,996.30
2023-06-12T03:26:38.158Z,996.31
2023-06-12T03:27:38.149Z,996.29
2023-06-12T03:28:38.173Z,996.29
2023-06-12T03:29:38.125Z,996.28
2023-06-12T03:30:38.152Z,996.29
2023-06-12T03:31:38.201Z,996.31
2023-06-12T03:32:38.123Z,996.28
2023-06-12T03:33:38.120Z,996.32
2023-06-12T03:34:38.110Z,996.33
2023-06-12T03:35:38.079Z,996.32
2023-06-12T03:36:38.073Z,996.37
2023-06-12T03:37:38.079Z,996.27
2023-06-12T03:38:38.085Z,996.37
2023-06-12T03:39:38.049Z,996.43
2023-06-12T03:40:38.081Z,996.37
2023-06-12T03:41:38.052Z,996.37
2023-06-12T03:42:38.070Z,996.33
2023-06-12T03:43:38.052Z,996.36
2023-06-12T03:44:38.018Z,996.31
2023-06-12T03:45:38.007Z,996.34
2023-06-12T03:46:38.068Z,996.30
2023-06-12T03:47:38.070Z,996.36
2023-06-12T03:48:38.008Z,996.39
2023-06-12T03:49:38.989Z,996.44
2023-06-12T03:50:37.979Z,996.51
2023-06-12T03:51:37.964Z,996.44
2023-06-12T03:52:37.984Z,996.42
2023-06-12T03:53:37.945Z,996.46
2023-06-12T03:54:37.948Z,996.46
2023-06-12T03:55:37.945Z,996.50
2023-06-12T03:56:37.974Z,996.50
2023-06-12T03:57:37.946Z,996.46
2023-06-12T03:58:37.906Z,996.48
2023-06-12T03:59:37.904Z,996.48
2023-06-12T04:00:37.902Z,996.52
2023-06-12T04:01:37.946Z,996.45
2023-06-12T04:02:37.936Z,996.58
2023-06-12T04:03:37.985Z,996.55
2023-06-12T04:04:37.899Z,996.56
2023-06-12T04:05:37.867Z,996.59
2023-06-12T04:06:38.886Z,996.50
2023-06-12T04:07:37.849Z,996.55
2023-06-12T04:08:37.835Z,996.59
2023-06-12T04:09:37.828Z,996.58
2023-06-12T04:10:37.837Z,996.49
2023-06-12T04:11:37.846Z,996.56
2023-06-12T04:12:37.820Z,996.49
2023-06-12T04:13:37.798Z,996.54
2023-06-12T04:14:40.997Z,996.59
2023-06-12T04:15:37.831Z,996.60
2023-06-12T04:16:37.863Z,996.61
2023-06-12T04:17:37.782Z,996.56
2023-06-12T04:18:37.755Z,996.52
2023-06-12T04:19:37.745Z,996.57
2023-06-12T04:20:37.770Z,996.56
2023-06-12T04:21:37.729Z,996.61
2023-06-12T04:22:37.723Z,996.52
2023-06-12T04:23:37.730Z,996.53
2023-06-12T04:24:37.714Z,996.47
2023-06-12T04:25:37.730Z,996.53
2023-06-12T04:26:37.691Z,996.48
2023-06-12T04:27:37.737Z,996.47
2023-06-12T04:28:37.711Z,996.56
2023-06-12T04:29:37.702Z,996.52
2023-06-12T04:30:37.693Z,996.58
2023-06-12T04:31:37.735Z,996.51
2023-06-12T04:32:37.750Z,996.44
2023-06-12T04:33:37.639Z,996.51
2023-06-12T04:34:37.655Z,996.55
2023-06-12T04:35:37.648Z,996.54
2023-06-12T04:36:37.619Z,996.57
2023-06-12T04:37:37.610Z,996.47
2023-06-12T04:38:37.610Z,996.52
2023-06-12T04:39:37.628Z,996.47
2023-06-12T04:40:37.580Z,996.48
2023-06-12T04:41:37.593Z,996.49
2023-06-12T04:42:37.579Z,996.48
2023-06-12T04:43:37.578Z,996.50
2023-06-12T04:44:37.627Z,996.53
2023-06-12T04:45:37.557Z,996.55
2023-06-12T04:46:37.545Z,996.57
2023-06-12T04:47:37.593Z,996.54
2023-06-12T04:48:37.632Z,996.55
2023-06-12T04:49:38.555Z,996.50
2023-06-12T04:50:37.518Z,996.45
2023-06-12T04:51:37.508Z,996.49
2023-06-12T04:52:37.530Z,996.50
2023-06-12T04:53:37.517Z,996.50
2023-06-12T04:54:37.510Z,996.59
2023-06-12T04:55:37.487Z,996.50
2023-06-12T04:56:37.467Z,996.44
2023-06-12T04:57:37.498Z,996.43
2023-06-12T04:58:37.479Z,996.46
2023-06-12T04:59:37.453Z,996.55
2023-06-12T05:00:37.509Z,996.51
2023-06-12T05:01:37.512Z,996.51
2023-06-12T05:02:37.479Z,996.52
2023-06-12T05:03:37.449Z,996.57
2023-06-12T05:04:37.489Z,996.49
2023-06-12T05:05:37.424Z,996.46
2023-06-12T05:06:37.404Z,996.47
2023-06-12T05:07:37.420Z,996.45
2023-06-12T05:08:37.422Z,996.54
2023-06-12T05:09:37.381Z,996.50
2023-06-12T05:10:37.378Z,996.52
2023-06-12T05:11:37.364Z,996.42
2023-06-12T05:12:37.574Z,996.47
2023-06-12T05:13:37.359Z,996.48
2023-06-12T05:14:37.350Z,996.49
2023-06-12T05:15:37.329Z,996.55
2023-06-12T05:16:37.349Z,996.43
2023-06-12T05:17:37.700Z,996.52
2023-06-12T05:18:37.395Z,996.54
2023-06-12T05:19:37.314Z,996.58
2023-06-12T05:20:37.293Z,996.58
2023-06-12T05:21:37.342Z,996.57
2023-06-12T05:22:37.331Z,996.61
2023-06-12T05:23:37.360Z,996.57
2023-06-12T05:24:37.289Z,996.63
2023-06-12T05:25:37.277Z,996.56
2023-06-12T05:26:37.365Z,996.56
2023-06-12T05:27:39.887Z,996.58
2023-06-12T05:28:37.239Z,996.56
2023-06-12T05:29:37.238Z,996.60
2023-06-12T05:30:37.272Z,996.60
2023-06-12T05:31:37.247Z,996.57
2023-06-12T05:32:37.227Z,996.57
2023-06-12T05:33:37.211Z,996.57
2023-06-12T05:34:37.230Z,996.49
2023-06-12T05:35:37.190Z,996.44
2023-06-12T05:36:37.205Z,996.58
2023-06-12T05:37:37.183Z,996.58
2023-06-12T05:38:37.169Z,996.55
2023-06-12T05:39:37.196Z,996.60
2023-06-12T05:40:37.150Z,996.60
2023-06-12T05:41:37.163Z,996.60
2023-06-12T05:42:37.192Z,996.62
2023-06-12T05:43:37.133Z,996.62
2023-06-12T05:44:37.130Z,996.65
2023-06-12T05:45:37.141Z,996.65
2023-06-12T05:46:37.242Z,996.67
2023-06-12T05:47:37.438Z,996.64
2023-06-12T05:48:38.089Z,996.68
2023-06-12T05:49:37.152Z,996.64
2023-06-12T05:50:38.708Z,996.62
2023-06-12T05:51:38.097Z,996.63
2023-06-12T05:52:40.169Z,996.63
2023-06-12T05:53:38.054Z,996.60
2023-06-12T05:54:37.087Z,996.65
2023-06-12T05:55:37.074Z,996.56
2023-06-12T05:56:37.035Z,996.52
2023-06-12T05:57:37.030Z,996.64
2023-06-12T05:58:37.032Z,996.64
2023-06-12T05:59:37.056Z,996.63
2023-06-12T06:00:37.094Z,996.66
2023-06-12T06:01:37.057Z,996.67
2023-06-12T06:02:37.125Z,996.60
2023-06-12T06:03:37.089Z,996.51
2023-06-12T06:04:37.144Z,996.62
2023-06-12T06:05:36.970Z,996.70
2023-06-12T06:06:36.979Z,996.70
2023-06-12T06:07:36.971Z,996.70
2023-06-12T06:08:36.951Z,996.69
2023-06-12T06:09:36.970Z,996.67
2023-06-12T06:10:36.931Z,996.67
2023-06-12T06:11:36.922Z,996.67
2023-06-12T06:12:36.934Z,996.64
2023-06-12T06:13:36.924Z,996.79
2023-06-12T06:14:36.936Z,996.83
2023-06-12T06:15:36.895Z,996.74
2023-06-12T06:16:48.837Z,996.69
2023-06-12T06:17:38.970Z,996.72
2023-06-12T06:18:36.976Z,996.72
2023-06-12T06:19:36.895Z,996.77
2023-06-12T06:20:36.863Z,996.74
2023-06-12T06:21:36.850Z,996.75
2023-06-12T06:22:36.850Z,996.76
2023-06-12T06:23:36.938Z,996.71
2023-06-12T06:24:36.832Z,996.74
2023-06-12T06:25:36.816Z,996.79
2023-06-12T06:26:36.834Z,996.76
2023-06-12T06:27:36.815Z,996.82
2023-06-12T06:28:36.824Z,996.82
2023-06-12T06:29:36.792Z,996.76
2023-06-12T06:30:36.815Z,996.82
2023-06-12T06:31:36.828Z,996.79
2023-06-12T06:32:36.883Z,996.84
2023-06-12T06:33:36.785Z,996.77
2023-06-12T06:34:36.764Z,996.75
2023-06-12T06:35:36.770Z,996.78
2023-06-12T06:36:36.739Z,996.90
2023-06-12T06:37:36.798Z,996.83
2023-06-12T06:38:36.727Z,996.82
2023-06-12T06:39:36.745Z,996.84
2023-06-12T06:40:36.729Z,996.82
2023-06-12T06:41:36.696Z,996.89
2023-06-12T06:42:36.727Z,996.85
2023-06-12T06:43:36.713Z,996.90
2023-06-12T06:44:36.680Z,996.84
2023-06-12T06:45:36.671Z,996.84
2023-06-12T06:46:36.975Z,996.87
2023-06-12T06:47:36.713Z,996.91
2023-06-12T06:48:36.644Z,996.88
2023-06-12T06:49:36.640Z,996.88
2023-06-12T06:50:36.640Z,996.90
2023-06-12T06:51:36.657Z,996.84
2023-06-12T06:52:36.665Z,996.88
2023-06-12T06:53:36.628Z,996.89
2023-06-12T06:54:36.614Z,996.84
2023-06-12T06:55:36.597Z,996.93
2023-06-12T06:56:36.595Z,996.84
2023-06-12T06:57:36.622Z,996.79
2023-06-12T06:58:36.574Z,996.83
2023-06-12T06:59:36.572Z,996.91
2023-06-12T07:00:36.566Z,996.89
2023-06-12T07:01:36.585Z,996.89
2023-06-12T07:02:36.620Z,996.86
2023-06-12T07:03:36.647Z,996.94
2023-06-12T07:04:36.553Z,996.84
2023-06-12T07:05:36.524Z,996.94
2023-06-12T07:06:36.548Z,996.83
2023-06-12T07:07:48.220Z,996.87
2023-06-12T07:08:38.504Z,996.83
2023-06-12T07:09:36.485Z,996.83
2023-06-12T07:10:36.514Z,996.83
2023-06-12T07:11:36.504Z,996.81
2023-06-12T07:12:36.470Z,996.81
2023-06-12T07:13:36.468Z,996.79
2023-06-12T07:14:36.454Z,996.81
2023-06-12T07:15:36.982Z,996.87
2023-06-12T07:16:36.585Z,996.80
2023-06-12T07:17:36.453Z,996.83
2023-06-12T07:18:36.432Z,996.84
2023-06-12T07:19:36.419Z,996.83
2023-06-12T07:20:36.429Z,996.75
2023-06-12T07:21:36.405Z,996.76
2023-06-12T07:22:36.406Z,996.80
2023-06-12T07:23:36.415Z,996.82
2023-06-12T07:24:36.421Z,996.83
2023-06-12T07:25:36.408Z,996.78
2023-06-12T07:26:36.387Z,996.80
2023-06-12T07:27:36.361Z,996.66
2023-06-12T07:28:36.350Z,996.76
2023-06-12T07:29:36.385Z,996.77
2023-06-12T07:30:36.353Z,996.76
2023-06-12T07:31:36.438Z,996.75
2023-06-12T07:32:36.383Z,996.71
2023-06-12T07:33:36.310Z,996.73
2023-06-12T07:34:36.339Z,996.74
2023-06-12T07:35:36.315Z,996.72
2023-06-12T07:36:36.313Z,996.75
2023-06-12T07:37:36.284Z,996.80
2023-06-12T07:38:36.318Z,996.81
2023-06-12T07:39:36.321Z,996.76
2023-06-12T07:40:36.305Z,996.69
2023-06-12T07:41:36.242Z,996.74
2023-06-12T07:42:36.246Z,996.72
2023-06-12T07:43:36.278Z,996.79
2023-06-12T07:44:36.258Z,996.76
2023-06-12T07:45:36.222Z,996.74
2023-06-12T07:46:36.274Z,996.77
2023-06-12T07:47:36.270Z,996.77
2023-06-12T07:48:36.242Z,996.76
2023-06-12T07:49:36.211Z,996.71
2023-06-12T07:50:36.185Z,996.68
2023-06-12T07:51:36.180Z,996.73
2023-06-12T07:52:36.177Z,996.70
2023-06-12T07:53:38.765Z,996.75
2023-06-12T07:54:37.158Z,996.71
2023-06-12T07:55:36.143Z,996.78
2023-06-12T07:56:36.124Z,996.70
2023-06-12T07:57:36.120Z,996.77
2023-06-12T07:58:36.155Z,996.73
2023-06-12T07:59:36.109Z,996.60
2023-06-12T08:00:36.098Z,996.69
2023-06-12T08:01:36.113Z,996.73
2023-06-12T08:02:36.236Z,996.72
2023-06-12T08:03:36.124Z,996.71
2023-06-12T08:04:36.058Z,996.68
2023-06-12T08:05:36.852Z,996.56
2023-06-12T08:06:36.176Z,996.61
2023-06-12T08:07:36.063Z,996.63
2023-06-12T08:08:36.040Z,996.60
2023-06-12T08:09:36.037Z,996.61
2023-06-12T08:10:36.024Z,996.52
2023-06-12T08:11:36.039Z,996.56
2023-06-12T08:12:36.025Z,996.63
2023-06-12T08:13:35.997Z,996.61
2023-06-12T08:14:35.990Z,996.60
2023-06-12T08:15:35.993Z,996.60
2023-06-12T08:16:36.040Z,996.62
2023-06-12T08:17:36.073Z,996.60
2023-06-12T08:18:36.001Z,996.63
2023-06-12T08:19:35.965Z,996.54
2023-06-12T08:20:35.950Z,996.54
2023-06-12T08:21:35.985Z,996.61
2023-06-12T08:22:35.944Z,996.56
2023-06-12T08:23:35.953Z,996.53
2023-06-12T08:24:36.569Z,996.60
2023-06-12T08:25:35.952Z,996.67
2023-06-12T08:26:35.937Z,996.61
2023-06-12T08:27:35.896Z,996.66
2023-06-12T08:28:35.896Z,996.53
2023-06-12T08:29:35.895Z,996.51
2023-06-12T08:30:35.928Z,996.58
2023-06-12T08:31:36.015Z,996.53
2023-06-12T08:32:35.953Z,996.55
2023-06-12T08:33:35.855Z,996.64
2023-06-12T08:34:35.872Z,996.67
2023-06-12T08:35:35.888Z,996.57
2023-06-12T08:36:35.841Z,996.59
2023-06-12T08:37:35.832Z,996.48
2023-06-12T08:38:35.826Z,996.62
2023-06-12T08:39:35.816Z,996.47
2023-06-12T08:40:35.848Z,996.43
2023-06-12T08:41:35.829Z,996.44
2023-06-12T08:42:35.793Z,996.45
2023-06-12T08:43:35.788Z,996.37
2023-06-12T08:44:36.365Z,996.53
2023-06-12T08:45:35.801Z,996.53
2023-06-12T08:46:35.864Z,996.51
2023-06-12T08:47:35.792Z,996.53
2023-06-12T08:48:35.756Z,996.39
2023-06-12T08:49:35.790Z,996.66
2023-06-12T08:50:35.719Z,996.60
2023-06-12T08:51:35.726Z,996.52
2023-06-12T08:52:35.724Z,996.56
2023-06-12T08:53:35.707Z,996.48
2023-06-12T08:54:35.736Z,996.46
2023-06-12T08:55:35.687Z,996.51
2023-06-12T08:56:35.690Z,996.42
2023-06-12T08:57:35.672Z,996.52
2023-06-12T08:58:35.700Z,996.50
2023-06-12T08:59:35.707Z,996.48
2023-06-12T09:00:35.653Z,996.48
2023-06-12T09:01:35.730Z,996.48
2023-06-12T09:02:35.749Z,996.36
2023-06-12T09:03:35.746Z,996.36
2023-06-12T09:04:35.725Z,996.35
2023-06-12T09:05:35.616Z,996.44
2023-06-12T09:06:35.630Z,996.30
2023-06-12T09:07:35.610Z,996.31
2023-06-12T09:08:35.612Z,996.33
2023-06-12T09:09:35.578Z,996.26
2023-06-12T09:10:36.117Z,996.21
2023-06-12T09:11:36.623Z,996.31
2023-06-12T09:12:35.608Z,996.17
2023-06-12T09:13:35.584Z,996.26
2023-06-12T09:14:35.549Z,996.23
2023-06-12T09:15:35.535Z,996.26
2023-06-12T09:16:35.609Z,996.27
2023-06-12T09:17:35.590Z,996.24
2023-06-12T09:18:35.555Z,996.27
2023-06-12T09:19:35.508Z,996.29
2023-06-12T09:20:41.574Z,996.35
2023-06-12T09:21:37.492Z,996.21
2023-06-12T09:22:35.506Z,996.25
2023-06-12T09:23:35.513Z,996.22
2023-06-12T09:24:35.479Z,996.25
2023-06-12T09:25:35.470Z,996.26
2023-06-12T09:26:35.484Z,996.23
2023-06-12T09:27:35.482Z,996.21
2023-06-12T09:28:35.436Z,996.23
2023-06-12T09:29:35.433Z,996.27
2023-06-12T09:30:35.447Z,996.20
2023-06-12T09:31:35.464Z,996.22
2023-06-12T09:32:35.644Z,996.15
2023-06-12T09:33:35.421Z,996.09
2023-06-12T09:34:35.423Z,996.16
2023-06-12T09:35:35.395Z,996.20
2023-06-12T09:36:35.435Z,996.12
2023-06-12T09:37:35.392Z,996.07
2023-06-12T09:38:35.421Z,996.11
2023-06-12T09:39:35.361Z,996.18
2023-06-12T09:40:36.394Z,996.24
2023-06-12T09:41:35.370Z,996.13
2023-06-12T09:42:35.345Z,996.07
2023-06-12T09:43:35.346Z,996.14
2023-06-12T09:44:35.320Z,996.18
2023-06-12T09:45:35.340Z,996.12
2023-06-12T09:46:35.407Z,996.05
2023-06-12T09:47:35.325Z,996.08
2023-06-12T09:48:35.293Z,995.96
2023-06-12T09:49:35.289Z,996.00
2023-06-12T09:50:35.305Z,996.25
2023-06-12T09:51:35.261Z,996.18
2023-06-12T09:52:35.262Z,996.20
2023-06-12T09:53:35.251Z,996.04
2023-06-12T09:54:35.269Z,995.98
2023-06-12T09:55:35.272Z,995.92
2023-06-12T09:56:35.225Z,995.96
2023-06-12T09:57:35.220Z,996.00
2023-06-12T09:58:35.209Z,996.18
2023-06-12T09:59:37.680Z,996.12
2023-06-12T10:00:35.226Z,996.14
2023-06-12T10:01:35.208Z,996.09
2023-06-12T10:02:35.226Z,996.15
2023-06-12T10:03:35.232Z,996.17
2023-06-12T10:04:35.195Z,996.17
2023-06-12T10:05:35.170Z,996.21
2023-06-12T10:06:35.179Z,996.11
2023-06-12T10:07:35.157Z,996.17
2023-06-12T10:08:35.128Z,996.11
2023-06-12T10:09:35.150Z,996.27
2023-06-12T10:10:35.123Z,996.14
2023-06-12T10:11:35.122Z,996.07
2023-06-12T10:12:35.107Z,996.09
2023-06-12T10:13:35.123Z,996.02
2023-06-12T10:14:35.196Z,996.10
2023-06-12T10:15:36.099Z,996.13
2023-06-12T10:16:35.201Z,996.16
2023-06-12T10:17:35.140Z,996.24
2023-06-12T10:18:35.091Z,996.20
2023-06-12T10:19:35.079Z,996.14
2023-06-12T10:20:35.069Z,996.17
2023-06-12T10:21:35.033Z,996.12
2023-06-12T10:22:35.026Z,996.27
2023-06-12T10:23:35.339Z,996.05
2023-06-12T10:24:36.010Z,996.18
2023-06-12T10:25:35.011Z,996.11
2023-06-12T10:26:34.998Z,996.01
2023-06-12T10:27:34.992Z,996.01
2023-06-12T10:28:35.034Z,996.00
2023-06-12T10:29:34.997Z,995.93
2023-06-12T10:30:34.984Z,995.78
2023-06-12T10:31:34.995Z,996.10
2023-06-12T10:32:36.020Z,996.14
2023-06-12T10:33:34.969Z,996.00
2023-06-12T10:34:34.941Z,995.91
2023-06-12T10:35:34.965Z,995.83
2023-06-12T10:36:34.927Z,995.92
2023-06-12T10:37:34.963Z,996.01
2023-06-12T10:38:34.899Z,995.78
2023-06-12T10:39:35.918Z,995.96
2023-06-12T10:40:47.976Z,995.93
2023-06-12T10:41:36.905Z,995.93
2023-06-12T10:42:34.913Z,995.94
2023-06-12T10:43:40.469Z,996.00
2023-06-12T10:44:36.939Z,995.93
2023-06-12T10:45:34.975Z,995.99
2023-06-12T10:46:34.901Z,995.96
2023-06-12T10:47:34.885Z,996.09
2023-06-12T10:48:34.836Z,995.93
2023-06-12T10:49:34.834Z,995.97
2023-06-12T10:50:34.843Z,995.91
2023-06-12T10:51:34.842Z,995.88
2023-06-12T10:52:34.831Z,995.82
2023-06-12T10:53:34.799Z,995.92
2023-06-12T10:54:36.440Z,995.86
2023-06-12T10:55:34.802Z,995.79
2023-06-12T10:56:34.829Z,995.86
2023-06-12T10:57:34.781Z,995.79
2023-06-12T10:58:34.773Z,995.92
2023-06-12T10:59:34.907Z,995.63
2023-06-12T11:00:34.853Z,995.80
2023-06-12T11:01:34.847Z,995.76
2023-06-12T11:02:34.989Z,995.97
2023-06-12T11:03:34.835Z,995.89
2023-06-12T11:04:34.873Z,995.84
2023-06-12T11:05:34.915Z,995.84
2023-06-12T11:06:34.698Z,995.94
2023-06-12T11:07:34.712Z,995.82
2023-06-12T11:08:34.697Z,995.81
2023-06-12T11:09:34.706Z,995.77
2023-06-12T11:10:34.742Z,995.63
2023-06-12T11:11:34.655Z,995.76
2023-06-12T11:12:48.129Z,995.64
2023-06-12T11:13:36.643Z,995.66
2023-06-12T11:14:34.673Z,995.67
2023-06-12T11:15:34.656Z,995.72
2023-06-12T11:16:34.709Z,995.73
2023-06-12T11:17:34.618Z,995.61
2023-06-12T11:18:34.603Z,995.89
2023-06-12T11:19:34.651Z,995.89
2023-06-12T11:20:34.625Z,995.88
2023-06-12T11:21:34.590Z,995.68
2023-06-12T11:22:34.599Z,995.68
2023-06-12T11:23:34.567Z,995.90
2023-06-12T11:24:34.676Z,995.76
2023-06-12T11:25:34.688Z,995.82
2023-06-12T11:26:34.552Z,995.84
2023-06-12T11:27:34.552Z,995.82
2023-06-12T11:28:34.562Z,995.63
2023-06-12T11:29:37.738Z,995.69
2023-06-12T11:30:41.144Z,995.62
2023-06-12T11:31:35.509Z,995.66
2023-06-12T11:32:34.627Z,995.63
2023-06-12T11:33:34.575Z,995.62
2023-06-12T11:34:34.518Z,995.65
2023-06-12T11:35:34.484Z,995.68
2023-06-12T11:36:35.064Z,995.60
2023-06-12T11:37:34.600Z,995.69
2023-06-12T11:40:35.448Z,995.75
2023-06-12T11:41:34.477Z,995.72
2023-06-12T11:42:34.421Z,995.75
2023-06-12T11:43:34.454Z,995.80
2023-06-12T11:44:34.415Z,995.62
2023-06-12T11:45:34.415Z,995.73
2023-06-12T11:46:34.412Z,995.63
2023-06-12T11:49:35.488Z,995.56
2023-06-12T11:50:35.382Z,995.63
2023-06-12T11:51:35.363Z,995.66
2023-06-12T11:52:34.391Z,995.61
2023-06-12T11:53:35.351Z,995.56
2023-06-12T11:57:35.341Z,995.70
2023-06-12T11:58:34.316Z,995.61
2023-06-12T11:59:34.307Z,995.47
2023-06-12T12:00:34.305Z,995.39
2023-06-12T12:01:34.353Z,995.50
2023-06-12T12:02:34.518Z,995.63
2023-06-12T12:03:34.281Z,995.66
2023-06-12T12:04:34.391Z,995.54
2023-06-12T12:05:34.272Z,995.54
2023-06-12T12:06:34.252Z,995.45
2023-06-12T12:07:34.265Z,995.50
2023-06-12T12:08:34.249Z,995.41
2023-06-12T12:09:34.231Z,995.47
2023-06-12T12:10:34.230Z,995.50
2023-06-12T12:11:34.243Z,995.40
2023-06-12T12:12:34.231Z,995.45
2023-06-12T12:13:34.206Z,995.47
2023-06-12T12:14:34.187Z,995.40
2023-06-12T12:15:34.199Z,995.41
2023-06-12T12:16:34.258Z,995.41
2023-06-12T12:17:34.216Z,995.32
2023-06-12T12:18:34.170Z,995.31
2023-06-12T12:19:34.166Z,995.40
2023-06-12T12:20:34.147Z,995.38
2023-06-12T12:21:34.178Z,995.28
2023-06-12T12:22:34.143Z,995.55
2023-06-12T12:23:34.148Z,995.46
2023-06-12T12:24:34.111Z,995.47
2023-06-12T12:25:34.132Z,995.22
2023-06-12T12:26:34.128Z,995.30
2023-06-12T12:27:34.097Z,995.25
2023-06-12T12:28:34.107Z,995.14
2023-06-12T12:29:43.736Z,995.17
2023-06-12T12:30:36.111Z,995.19
2023-06-12T12:31:34.118Z,995.19
2023-06-12T12:32:34.129Z,995.12
2023-06-12T12:33:34.049Z,995.22
2023-06-12T12:34:34.108Z,995.19
2023-06-12T12:35:34.066Z,995.31